Time;durP1;ratioP1;P1;durP2;ratioP2;P2;SDS_P1;SDS_P2;PMS_P1;PMS_P2;Temp;Humidity;BMP_temperature;BMP_pressure;BME280_temperature;BME280_humidity;BME280_pressure;Samples;Min_cycle;Max_cycle;Signal;HPM_P1;HPM_P2
2023/08/20 00:00:52;;;;;;;7.53;5.65;;;;;;;;;;6260922;27;20049;-71
2023/08/20 00:03:55;;;;;;;8.48;5.05;;;;;;;;;;6290878;27;20053;-71
2023/08/20 00:06:57;;;;;;;8.50;5.75;;;;;;;;;;6272298;27;20058;-71
2023/08/20 00:09:59;;;;;;;10.43;6.50;;;;;;;;;;6268704;27;20052;-71
2023/08/20 00:13:02;;;;;;;8.18;5.38;;;;;;;;;;6313185;27;20046;-72
2023/08/20 00:16:04;;;;;;;7.10;5.03;;;;;;;;;;6276678;27;20065;-72
2023/08/20 00:19:07;;;;;;;8.18;5.38;;;;;;;;;;6303637;27;20038;-71
2023/08/20 00:22:09;;;;;;;8.70;5.85;;;;;;;;;;6261781;27;20451;-71
2023/08/20 00:25:15;;;;;;;9.07;6.22;;;;;;;;;;6271449;27;20035;-72
2023/08/20 00:28:19;;;;;;;8.20;5.65;;;;;;;;;;6293290;27;20936;-71
2023/08/20 00:31:21;;;;;;;9.85;5.50;;;;;;;;;;6245579;27;20044;-71
2023/08/20 00:34:24;;;;;;;9.00;5.53;;;;;;;;;;6264124;27;20064;-71
2023/08/20 00:37:27;;;;;;;12.40;6.03;;;;;;;;;;6337818;27;20054;-71
2023/08/20 00:40:30;;;;;;;8.68;5.82;;;;;;;;;;6252667;27;20041;-71
2023/08/20 00:43:32;;;;;;;10.80;6.55;;;;;;;;;;6306370;27;20047;-71
2023/08/20 00:46:34;;;;;;;10.20;6.43;;;;;;;;;;6233812;27;20043;-71
2023/08/20 00:49:37;;;;;;;11.50;6.15;;;;;;;;;;6279469;27;20035;-71
2023/08/20 00:52:39;;;;;;;8.43;6.88;;;;;;;;;;6253983;27;20052;-71
2023/08/20 00:55:42;;;;;;;10.43;6.72;;;;;;;;;;6264088;27;20053;-71
2023/08/20 00:58:45;;;;;;;7.75;5.90;;;;;;;;;;6281688;27;20050;-72
2023/08/20 01:01:48;;;;;;;8.93;7.18;;;;;;;;;;6230531;27;20055;-72
2023/08/20 01:04:51;;;;;;;10.60;6.03;;;;;;;;;;6259694;27;20060;-71
2023/08/20 01:08:11;;;;;;;11.25;6.78;;;;;;;;;;6258318;27;20045;-71
2023/08/20 01:11:18;;;;;;;12.45;7.68;;;;;;;;;;6268513;27;20772;-72
2023/08/20 01:14:20;;;;;;;10.00;6.65;;;;;;;;;;6241338;27;20049;-71
2023/08/20 01:17:24;;;;;;;10.38;6.22;;;;;;;;;;6257773;27;20052;-71
2023/08/20 01:20:30;;;;;;;10.52;6.60;;;;;;;;;;6283705;27;20045;-72
2023/08/20 01:24:02;;;;;;;8.90;7.45;;;;;;;;;;6239281;27;20493;-72
2023/08/20 01:27:17;;;;;;;9.30;7.45;;;;;;;;;;6244675;27;20049;-71
2023/08/20 01:30:20;;;;;;;9.23;7.10;;;;;;;;;;6251421;28;20045;-71
2023/08/20 01:33:25;;;;;;;8.77;7.07;;;;;;;;;;6256619;27;20121;-72
2023/08/20 01:36:27;;;;;;;10.60;7.93;;;;;;;;;;6316511;27;20053;-71
2023/08/20 01:39:29;;;;;;;10.27;7.47;;;;;;;;;;6310072;27;20100;-71
2023/08/20 01:42:31;;;;;;;11.77;8.32;;;;;;;;;;6252951;27;20037;-71
2023/08/20 01:45:33;;;;;;;10.48;7.80;;;;;;;;;;6276568;27;20078;-71
2023/08/20 01:48:36;;;;;;;12.52;7.82;;;;;;;;;;6247855;27;20607;-71
2023/08/20 01:51:38;;;;;;;10.45;7.80;;;;;;;;;;6262364;27;20037;-71
2023/08/20 01:54:40;;;;;;;12.18;8.25;;;;;;;;;;6276284;27;20056;-72
2023/08/20 01:57:43;;;;;;;11.32;8.25;;;;;;;;;;6254898;27;20049;-72
2023/08/20 02:00:46;;;;;;;11.07;6.85;;;;;;;;;;6277773;27;20042;-71
2023/08/20 02:03:48;;;;;;;11.18;8.20;;;;;;;;;;6266304;27;20063;-72
2023/08/20 02:06:50;;;;;;;9.85;7.97;;;;;;;;;;6260672;28;20053;-71
2023/08/20 02:09:52;;;;;;;10.63;8.05;;;;;;;;;;6283010;27;20060;-72
2023/08/20 02:12:54;;;;;;;12.68;7.50;;;;;;;;;;6261176;27;20049;-72
2023/08/20 02:15:58;;;;;;;12.32;8.68;;;;;;;;;;6272416;27;20454;-72
2023/08/20 02:19:02;;;;;;;10.45;7.75;;;;;;;;;;6268515;27;20047;-72
2023/08/20 02:22:05;;;;;;;13.70;8.75;;;;;;;;;;6269695;27;20064;-71
2023/08/20 02:25:07;;;;;;;12.07;8.63;;;;;;;;;;6282155;27;20052;-72
2023/08/20 02:28:09;;;;;;;10.80;8.02;;;;;;;;;;6260299;27;20037;-71
2023/08/20 02:31:13;;;;;;;13.82;10.27;;;;;;;;;;6278196;27;20111;-72
2023/08/20 02:34:15;;;;;;;12.60;8.50;;;;;;;;;;6259062;27;20050;-72
2023/08/20 02:37:17;;;;;;;11.85;8.07;;;;;;;;;;6246014;27;20037;-72
2023/08/20 02:40:19;;;;;;;12.05;9.13;;;;;;;;;;6283126;27;20804;-72
2023/08/20 02:43:21;;;;;;;10.98;8.43;;;;;;;;;;6249156;27;20045;-73
2023/08/20 02:46:23;;;;;;;9.85;8.32;;;;;;;;;;6286220;27;20510;-73
2023/08/20 02:49:25;;;;;;;11.23;8.93;;;;;;;;;;6291474;27;20057;-73
2023/08/20 02:52:27;;;;;;;13.43;9.80;;;;;;;;;;6259507;27;20561;-72
2023/08/20 02:55:30;;;;;;;11.75;9.40;;;;;;;;;;6255495;27;20045;-73
2023/08/20 02:58:33;;;;;;;12.07;8.57;;;;;;;;;;6257441;27;20096;-73
2023/08/20 03:01:36;;;;;;;11.00;8.88;;;;;;;;;;6343072;27;20052;-72
2023/08/20 03:04:38;;;;;;;12.20;9.65;;;;;;;;;;6259591;27;20060;-73
2023/08/20 03:07:40;;;;;;;15.68;9.55;;;;;;;;;;6321325;27;20128;-73
2023/08/20 03:10:42;;;;;;;15.85;10.75;;;;;;;;;;6265103;27;20044;-72
2023/08/20 03:13:45;;;;;;;14.40;10.10;;;;;;;;;;6259596;27;20041;-73
2023/08/20 03:16:47;;;;;;;13.70;9.80;;;;;;;;;;6266144;27;20055;-72
2023/08/20 03:19:57;;;;;;;14.02;11.07;;;;;;;;;;6270381;27;20445;-72
2023/08/20 03:22:59;;;;;;;13.82;10.05;;;;;;;;;;6264348;27;20440;-72
2023/08/20 03:26:02;;;;;;;16.88;10.40;;;;;;;;;;6282199;27;20175;-72
2023/08/20 03:29:05;;;;;;;13.55;9.38;;;;;;;;;;6267893;27;20044;-73
2023/08/20 03:32:07;;;;;;;15.48;9.85;;;;;;;;;;6276127;27;20041;-74
2023/08/20 03:35:10;;;;;;;16.08;10.65;;;;;;;;;;6249017;27;20099;-72
2023/08/20 03:38:12;;;;;;;11.88;9.20;;;;;;;;;;6262689;27;20492;-73
2023/08/20 03:41:14;;;;;;;49.05;12.40;;;;;;;;;;6244912;27;20056;-73
2023/08/20 03:44:16;;;;;;;16.88;11.00;;;;;;;;;;6248237;27;20049;-72
2023/08/20 03:47:21;;;;;;;13.73;9.25;;;;;;;;;;6260935;27;20060;-73
2023/08/20 03:50:24;;;;;;;15.88;9.80;;;;;;;;;;6251369;27;20056;-73
2023/08/20 03:53:26;;;;;;;14.35;10.45;;;;;;;;;;6213801;28;20101;-73
2023/08/20 03:56:28;;;;;;;13.73;9.93;;;;;;;;;;6242827;28;20049;-73
2023/08/20 03:59:30;;;;;;;13.95;10.00;;;;;;;;;;6323593;27;20130;-72
2023/08/20 04:02:34;;;;;;;14.35;9.82;;;;;;;;;;6245009;27;20041;-72
2023/08/20 04:05:39;;;;;;;13.73;8.70;;;;;;;;;;6295248;27;20095;-72
2023/08/20 04:08:41;;;;;;;16.85;10.18;;;;;;;;;;6287746;27;20056;-72
2023/08/20 04:11:45;;;;;;;16.20;11.13;;;;;;;;;;6292653;27;20155;-72
2023/08/20 04:14:47;;;;;;;32.17;23.95;;;;;;;;;;6284410;27;20178;-72
2023/08/20 04:17:49;;;;;;;31.38;20.88;;;;;;;;;;6278651;27;20045;-71
2023/08/20 04:20:52;;;;;;;26.90;18.52;;;;;;;;;;6237513;27;20057;-71
2023/08/20 04:23:54;;;;;;;31.55;16.70;;;;;;;;;;6277524;27;20045;-72
2023/08/20 04:26:57;;;;;;;28.77;17.60;;;;;;;;;;6271358;27;20069;-73
2023/08/20 04:30:01;;;;;;;28.02;18.25;;;;;;;;;;6299327;27;20455;-72
2023/08/20 04:33:04;;;;;;;25.00;16.98;;;;;;;;;;6245594;27;20438;-72
2023/08/20 04:36:07;;;;;;;21.80;15.32;;;;;;;;;;6341331;27;20041;-72
2023/08/20 04:39:10;;;;;;;20.30;13.60;;;;;;;;;;6254310;27;20537;-71
2023/08/20 04:42:16;;;;;;;18.85;12.73;;;;;;;;;;6267391;27;20641;-71
2023/08/20 04:45:19;;;;;;;16.92;10.57;;;;;;;;;;6287072;27;20735;-72
2023/08/20 04:48:22;;;;;;;15.18;11.20;;;;;;;;;;6262988;27;20040;-71
2023/08/20 04:51:25;;;;;;;12.65;9.75;;;;;;;;;;6256336;27;20033;-71
2023/08/20 04:54:27;;;;;;;22.83;12.00;;;;;;;;;;6295502;27;20046;-71
2023/08/20 04:57:29;;;;;;;17.75;11.25;;;;;;;;;;6263965;27;20053;-71
2023/08/20 05:00:32;;;;;;;16.05;10.05;;;;;;;;;;6244633;27;20504;-71
2023/08/20 05:03:44;;;;;;;17.17;10.38;;;;;;;;;;6227204;27;20049;-71
2023/08/20 05:06:46;;;;;;;19.00;10.65;;;;;;;;;;6255047;27;20132;-71
2023/08/20 05:09:49;;;;;;;18.92;10.20;;;;;;;;;;6258527;27;20543;-71
2023/08/20 05:12:51;;;;;;;14.40;12.07;;;;;;;;;;6285589;27;20158;-72
2023/08/20 05:15:53;;;;;;;11.07;8.85;;;;;;;;;;6253294;27;20049;-73
2023/08/20 05:18:55;;;;;;;12.02;8.63;;;;;;;;;;6290856;27;20043;-72
2023/08/20 05:21:58;;;;;;;10.38;8.18;;;;;;;;;;6266251;27;20052;-72
2023/08/20 05:25:04;;;;;;;16.17;9.05;;;;;;;;;;6249600;27;20443;-72
2023/08/20 05:28:07;;;;;;;13.15;9.60;;;;;;;;;;6249561;27;20048;-72
2023/08/20 05:31:10;;;;;;;11.15;8.93;;;;;;;;;;6246749;27;20057;-73
2023/08/20 05:34:12;;;;;;;12.88;7.95;;;;;;;;;;6271440;27;20060;-71
2023/08/20 05:37:14;;;;;;;10.95;8.85;;;;;;;;;;6261805;27;20508;-70
2023/08/20 05:40:18;;;;;;;9.80;8.18;;;;;;;;;;6294562;27;20517;-70
2023/08/20 05:43:20;;;;;;;12.45;8.00;;;;;;;;;;6254871;27;20090;-71
2023/08/20 05:46:22;;;;;;;11.90;7.95;;;;;;;;;;6250342;27;20681;-71
2023/08/20 05:49:24;;;;;;;10.25;8.23;;;;;;;;;;6247670;27;20592;-72
2023/08/20 05:52:28;;;;;;;11.27;8.30;;;;;;;;;;6243924;27;20046;-72
2023/08/20 05:55:31;;;;;;;10.60;7.60;;;;;;;;;;6245492;27;20052;-72
2023/08/20 05:58:34;;;;;;;11.98;8.10;;;;;;;;;;6235201;28;20057;-75
2023/08/20 06:01:36;;;;;;;12.80;7.88;;;;;;;;;;6244252;27;20065;-74
2023/08/20 06:04:38;;;;;;;9.20;7.03;;;;;;;;;;6259119;27;20050;-73
2023/08/20 06:07:40;;;;;;;11.07;8.35;;;;;;;;;;6256806;27;20129;-74
2023/08/20 06:10:42;;;;;;;14.50;8.82;;;;;;;;;;6261276;27;20056;-74
2023/08/20 06:13:44;;;;;;;11.57;8.43;;;;;;;;;;6273985;27;20049;-70
2023/08/20 06:16:46;;;;;;;11.27;7.82;;;;;;;;;;6255102;27;20060;-68
2023/08/20 06:19:48;;;;;;;16.63;8.98;;;;;;;;;;6273298;27;20546;-69
2023/08/20 06:22:55;;;;;;;12.07;8.60;;;;;;;;;;6276780;27;20114;-67
2023/08/20 06:25:58;;;;;;;13.52;9.02;;;;;;;;;;6298234;27;20122;-74
2023/08/20 06:29:00;;;;;;;14.85;8.75;;;;;;;;;;6247864;27;20128;-71
2023/08/20 06:32:05;;;;;;;11.98;8.75;;;;;;;;;;6300329;27;20158;-69
2023/08/20 06:35:09;;;;;;;12.45;9.90;;;;;;;;;;6286280;27;20103;-69
2023/08/20 06:38:11;;;;;;;17.27;9.10;;;;;;;;;;6278721;27;20049;-69
2023/08/20 06:41:13;;;;;;;13.93;7.82;;;;;;;;;;6265713;27;20045;-67
2023/08/20 06:44:15;;;;;;;13.32;9.00;;;;;;;;;;6282646;27;20041;-66
2023/08/20 06:47:17;;;;;;;19.88;9.65;;;;;;;;;;6279688;27;20055;-71
2023/08/20 06:50:19;;;;;;;18.23;9.50;;;;;;;;;;6273712;27;20647;-67
2023/08/20 06:53:21;;;;;;;12.05;9.90;;;;;;;;;;6302548;27;20115;-68
2023/08/20 06:56:23;;;;;;;13.30;9.02;;;;;;;;;;6267357;27;20084;-69
2023/08/20 06:59:25;;;;;;;11.98;8.45;;;;;;;;;;6273521;27;20057;-69
2023/08/20 07:02:27;;;;;;;10.88;7.82;;;;;;;;;;6257062;27;20129;-71
2023/08/20 07:05:29;;;;;;;11.70;7.45;;;;;;;;;;6269674;27;20049;-69
2023/08/20 07:08:32;;;;;;;12.15;8.75;;;;;;;;;;6253910;27;20057;-68
2023/08/20 07:11:34;;;;;;;10.50;7.90;;;;;;;;;;6257535;27;20037;-71
2023/08/20 07:14:36;;;;;;;13.93;10.18;;;;;;;;;;6278134;27;20128;-70
2023/08/20 07:17:38;;;;;;;25.08;15.13;;;;;;;;;;6250992;27;20515;-72
2023/08/20 07:20:44;;;;;;;40.72;30.58;;;;;;;;;;6280214;27;20070;-73
2023/08/20 07:23:46;;;;;;;27.42;20.67;;;;;;;;;;6279940;27;20065;-73
2023/08/20 07:26:48;;;;;;;20.83;15.85;;;;;;;;;;6271525;27;20041;-73
2023/08/20 07:29:50;;;;;;;18.02;14.43;;;;;;;;;;6249909;27;20053;-73
2023/08/20 07:32:52;;;;;;;16.13;10.18;;;;;;;;;;6244944;27;20041;-70
2023/08/20 07:35:54;;;;;;;12.77;8.82;;;;;;;;;;6258334;27;20049;-73
2023/08/20 07:38:57;;;;;;;9.55;8.55;;;;;;;;;;6270357;27;20450;-73
2023/08/20 07:42:00;;;;;;;12.85;10.68;;;;;;;;;;6248044;27;20113;-70
2023/08/20 07:45:02;;;;;;;12.85;10.07;;;;;;;;;;6266614;27;20194;-69
2023/08/20 07:48:05;;;;;;;13.68;6.22;;;;;;;;;;6252079;27;20053;-71
2023/08/20 07:51:08;;;;;;;11.38;7.13;;;;;;;;;;6270320;27;20029;-71
2023/08/20 07:54:10;;;;;;;10.88;6.85;;;;;;;;;;6296661;27;20210;-71
2023/08/20 07:57:12;;;;;;;9.60;7.03;;;;;;;;;;6308905;27;20049;-71
2023/08/20 08:00:15;;;;;;;10.25;6.68;;;;;;;;;;6255404;27;20037;-71
2023/08/20 08:03:17;;;;;;;9.13;6.20;;;;;;;;;;6257784;27;20052;-71
2023/08/20 08:06:21;;;;;;;9.70;7.03;;;;;;;;;;6315454;27;20063;-71
2023/08/20 08:09:29;;;;;;;9.27;6.28;;;;;;;;;;6286778;27;20066;-71
2023/08/20 08:12:31;;;;;;;8.82;6.40;;;;;;;;;;6265493;27;20079;-71
2023/08/20 08:15:33;;;;;;;9.80;7.25;;;;;;;;;;6297406;27;20412;-71
2023/08/20 08:18:35;;;;;;;6.75;3.60;;;;;;;;;;6246683;27;20041;-71
2023/08/20 08:21:38;;;;;;;5.25;2.55;;;;;;;;;;6269859;27;20049;-71
2023/08/20 08:24:42;;;;;;;3.97;3.03;;;;;;;;;;6269788;27;20074;-71
2023/08/20 08:27:44;;;;;;;7.45;2.70;;;;;;;;;;6255577;27;20045;-71
2023/08/20 08:31:01;;;;;;;5.10;2.33;;;;;;;;;;6246372;28;20051;-71
2023/08/20 08:34:03;;;;;;;6.22;2.30;;;;;;;;;;6279805;27;20048;-72
2023/08/20 08:37:05;;;;;;;4.53;2.30;;;;;;;;;;6295292;27;20122;-71
2023/08/20 08:40:08;;;;;;;4.25;2.47;;;;;;;;;;6297662;27;20166;-72
2023/08/20 08:43:16;;;;;;;5.68;2.97;;;;;;;;;;6246833;27;20049;-71
2023/08/20 08:46:19;;;;;;;6.65;2.58;;;;;;;;;;6241879;27;20171;-71
2023/08/20 08:49:21;;;;;;;5.15;2.25;;;;;;;;;;6249320;27;20049;-71
2023/08/20 08:52:23;;;;;;;5.50;2.33;;;;;;;;;;6275356;27;20041;-66
2023/08/20 08:55:25;;;;;;;5.40;2.40;;;;;;;;;;6266652;27;20045;-65
2023/08/20 08:58:27;;;;;;;5.80;2.10;;;;;;;;;;6254472;27;20097;-65
2023/08/20 09:01:30;;;;;;;4.32;2.38;;;;;;;;;;6296112;27;20124;-65
2023/08/20 09:04:41;;;;;;;4.13;2.42;;;;;;;;;;6261680;27;20091;-65
2023/08/20 09:07:47;;;;;;;4.47;2.47;;;;;;;;;;6258524;27;20136;-67
2023/08/20 09:10:54;;;;;;;5.38;2.72;;;;;;;;;;6264639;27;20169;-69
2023/08/20 09:13:56;;;;;;;7.53;2.53;;;;;;;;;;6288178;27;20111;-69
2023/08/20 09:17:00;;;;;;;5.28;2.83;;;;;;;;;;6283730;27;20045;-70
2023/08/20 09:20:02;;;;;;;;;;;;;;;;;;6276436;27;20057;-69
2023/08/20 09:23:11;;;;;;;4.13;2.13;;;;;;;;;;6288755;27;19922;-68
2023/08/20 09:26:14;;;;;;;4.55;2.30;;;;;;;;;;6269478;27;20580;-69
2023/08/20 09:29:16;;;;;;;7.47;2.88;;;;;;;;;;6289092;27;20063;-69
2023/08/20 09:32:20;;;;;;;4.18;2.00;;;;;;;;;;6258487;27;20040;-69
2023/08/20 09:35:23;;;;;;;5.50;2.10;;;;;;;;;;6293797;27;20835;-69
2023/08/20 09:38:25;;;;;;;4.35;2.70;;;;;;;;;;6306318;27;20403;-68
2023/08/20 09:41:27;;;;;;;3.42;1.63;;;;;;;;;;6285161;27;20157;-69
2023/08/20 09:44:36;;;;;;;4.93;2.88;;;;;;;;;;6307364;27;20049;-69
2023/08/20 09:47:41;;;;;;;9.90;2.35;;;;;;;;;;6280042;27;20168;-69
2023/08/20 09:50:43;;;;;;;5.30;2.67;;;;;;;;;;6259649;27;20049;-69
2023/08/20 09:53:53;;;;;;;5.18;3.03;;;;;;;;;;6247763;27;20134;-69
2023/08/20 09:57:03;;;;;;;4.00;2.72;;;;;;;;;;6290667;27;20053;-69
2023/08/20 10:00:10;;;;;;;4.72;2.70;;;;;;;;;;6259086;27;20053;-69
2023/08/20 10:03:16;;;;;;;3.70;1.83;;;;;;;;;;6263763;27;20629;-69
2023/08/20 10:06:19;;;;;;;3.92;2.13;;;;;;;;;;6270618;27;20060;-69
2023/08/20 10:09:25;;;;;;;5.05;2.88;;;;;;;;;;6263117;27;20048;-69
2023/08/20 10:12:28;;;;;;;4.45;2.05;;;;;;;;;;6271038;27;20186;-69
2023/08/20 10:15:31;;;;;;;6.07;2.35;;;;;;;;;;6254211;27;20155;-69
2023/08/20 10:18:37;;;;;;;3.45;2.38;;;;;;;;;;6269541;27;20719;-69
2023/08/20 10:21:44;;;;;;;6.13;2.08;;;;;;;;;;6292783;27;20645;-69
2023/08/20 10:24:49;;;;;;;5.03;3.13;;;;;;;;;;6268748;27;20375;-69
2023/08/20 10:27:52;;;;;;;3.67;2.55;;;;;;;;;;6322138;27;20090;-69
2023/08/20 10:31:12;;;;;;;6.18;2.88;;;;;;;;;;6304025;27;20048;-70
2023/08/20 10:34:32;;;;;;;6.57;2.35;;;;;;;;;;6261547;27;20049;-69
2023/08/20 10:37:36;;;;;;;5.97;3.13;;;;;;;;;;6265593;27;20490;-69
2023/08/20 10:40:57;;;;;;;6.85;3.15;;;;;;;;;;6271096;27;20064;-69
2023/08/20 10:44:00;;;;;;;7.43;2.97;;;;;;;;;;6286904;27;20835;-69
2023/08/20 10:47:06;;;;;;;5.10;3.50;;;;;;;;;;6305783;27;21067;-69
2023/08/20 10:50:10;;;;;;;5.90;3.45;;;;;;;;;;6271399;27;20061;-68
2023/08/20 10:53:13;;;;;;;4.85;2.95;;;;;;;;;;6267989;27;20041;-67
2023/08/20 10:56:17;;;;;;;5.90;3.20;;;;;;;;;;6279933;27;20159;-68
2023/08/20 10:59:25;;;;;;;5.05;3.22;;;;;;;;;;6262387;27;20072;-67
2023/08/20 11:02:28;;;;;;;4.47;3.20;;;;;;;;;;6295624;27;20051;-68
2023/08/20 11:05:30;;;;;;;6.03;3.70;;;;;;;;;;6251195;27;20049;-67
2023/08/20 11:08:32;;;;;;;5.05;3.42;;;;;;;;;;6275951;27;20048;-67
2023/08/20 11:11:34;;;;;;;5.85;3.25;;;;;;;;;;6249987;27;20045;-68
2023/08/20 11:14:36;;;;;;;5.15;3.13;;;;;;;;;;6263941;27;20056;-68
2023/08/20 11:17:46;;;;;;;5.53;3.33;;;;;;;;;;6325281;27;20071;-68
2023/08/20 11:20:52;;;;;;;5.93;3.03;;;;;;;;;;6250749;27;20052;-67
2023/08/20 11:23:55;;;;;;;6.57;3.10;;;;;;;;;;6259795;27;20060;-67
2023/08/20 11:26:57;;;;;;;7.47;3.05;;;;;;;;;;6259228;27;20060;-68
2023/08/20 11:29:59;;;;;;;5.63;3.50;;;;;;;;;;6262656;27;20061;-68
2023/08/20 11:33:01;;;;;;;5.90;2.83;;;;;;;;;;6274825;27;20039;-68
2023/08/20 11:36:07;;;;;;;5.28;3.40;;;;;;;;;;6252674;27;20038;-68
2023/08/20 11:39:09;;;;;;;8.75;2.97;;;;;;;;;;6271119;27;20053;-68
2023/08/20 11:42:11;;;;;;;4.50;3.00;;;;;;;;;;6265670;27;20045;-68
2023/08/20 11:45:13;;;;;;;5.13;3.05;;;;;;;;;;6265891;27;20626;-69
2023/08/20 11:48:16;;;;;;;5.85;3.28;;;;;;;;;;6293831;27;20129;-68
2023/08/20 11:51:18;;;;;;;5.40;3.15;;;;;;;;;;6266236;27;20185;-68
2023/08/20 11:54:20;;;;;;;4.05;2.63;;;;;;;;;;6266264;27;20171;-68
2023/08/20 11:57:22;;;;;;;5.65;3.20;;;;;;;;;;6264362;27;20077;-68
2023/08/20 12:00:29;;;;;;;6.28;3.28;;;;;;;;;;6284528;27;20049;-69
2023/08/20 12:03:31;;;;;;;5.20;2.88;;;;;;;;;;6275733;27;20043;-68
2023/08/20 12:06:34;;;;;;;4.72;3.13;;;;;;;;;;6260581;27;20140;-68
2023/08/20 12:09:36;;;;;;;5.28;3.00;;;;;;;;;;6265729;27;20053;-68
2023/08/20 12:12:39;;;;;;;4.55;3.15;;;;;;;;;;6265192;27;20067;-69
2023/08/20 12:15:41;;;;;;;6.50;2.90;;;;;;;;;;6251574;28;20037;-68
2023/08/20 12:18:43;;;;;;;7.07;3.13;;;;;;;;;;6257688;28;20132;-68
2023/08/20 12:21:45;;;;;;;4.82;2.50;;;;;;;;;;6319064;27;20044;-67
2023/08/20 12:24:53;;;;;;;4.05;2.47;;;;;;;;;;6290414;27;20434;-68
2023/08/20 12:27:57;;;;;;;4.60;3.20;;;;;;;;;;6253615;27;20048;-69
2023/08/20 12:30:59;;;;;;;5.15;2.70;;;;;;;;;;6262723;27;20139;-69
2023/08/20 12:34:02;;;;;;;7.00;3.50;;;;;;;;;;6251148;27;20857;-69
2023/08/20 12:37:04;;;;;;;7.47;2.90;;;;;;;;;;6290890;27;20043;-68
2023/08/20 12:40:10;;;;;;;5.60;2.28;;;;;;;;;;6361362;27;20050;-69
2023/08/20 12:43:12;;;;;;;5.03;2.97;;;;;;;;;;6297071;27;20037;-69
2023/08/20 12:46:14;;;;;;;5.25;2.63;;;;;;;;;;6317677;27;20043;-70
2023/08/20 12:49:16;;;;;;;6.22;2.50;;;;;;;;;;6263159;28;20158;-69
2023/08/20 12:52:19;;;;;;;5.82;2.78;;;;;;;;;;6249789;28;20052;-70
2023/08/20 12:55:21;;;;;;;6.75;2.55;;;;;;;;;;6281117;27;20109;-68
2023/08/20 12:58:24;;;;;;;4.20;2.47;;;;;;;;;;6275580;27;20539;-68
2023/08/20 13:01:26;;;;;;;3.97;2.45;;;;;;;;;;6327334;27;20048;-68
2023/08/20 13:04:29;;;;;;;5.90;2.53;;;;;;;;;;6258611;28;20366;-68
2023/08/20 13:07:31;;;;;;;3.60;2.00;;;;;;;;;;6341483;27;20882;-68
2023/08/20 13:10:34;;;;;;;3.83;2.33;;;;;;;;;;6307964;27;20167;-68
2023/08/20 13:13:36;;;;;;;8.05;2.85;;;;;;;;;;6298071;27;20037;-67
2023/08/20 13:16:38;;;;;;;4.13;2.08;;;;;;;;;;6283196;27;20104;-68
2023/08/20 13:19:41;;;;;;;3.83;2.63;;;;;;;;;;6276919;27;20151;-70
2023/08/20 13:22:43;;;;;;;4.35;3.45;;;;;;;;;;6274659;27;20128;-69
2023/08/20 13:25:45;;;;;;;6.35;2.22;;;;;;;;;;6253607;27;20052;-69
2023/08/20 13:28:47;;;;;;;4.03;2.42;;;;;;;;;;6272184;27;20044;-69
2023/08/20 13:31:49;;;;;;;7.97;2.75;;;;;;;;;;6262623;27;20081;-69
2023/08/20 13:34:52;;;;;;;3.55;2.05;;;;;;;;;;6277371;27;20046;-69
2023/08/20 13:37:54;;;;;;;5.25;2.38;;;;;;;;;;6269130;27;20799;-70
2023/08/20 13:40:57;;;;;;;3.95;2.08;;;;;;;;;;6261089;27;20042;-69
2023/08/20 13:43:59;;;;;;;5.30;2.58;;;;;;;;;;6258973;27;20529;-69
2023/08/20 13:47:01;;;;;;;4.45;2.63;;;;;;;;;;6274159;27;20137;-68
2023/08/20 13:50:04;;;;;;;5.00;2.13;;;;;;;;;;6283443;27;20053;-69
2023/08/20 13:53:06;;;;;;;4.95;3.05;;;;;;;;;;6256711;27;20268;-68
2023/08/20 13:56:08;;;;;;;4.63;3.05;;;;;;;;;;6301667;27;20051;-68
2023/08/20 13:59:11;;;;;;;6.90;2.38;;;;;;;;;;6268390;27;20041;-69
2023/08/20 14:02:13;;;;;;;5.47;2.33;;;;;;;;;;6265449;27;20048;-69
2023/08/20 14:05:15;;;;;;;4.03;2.28;;;;;;;;;;6262740;27;20112;-70
2023/08/20 14:08:17;;;;;;;5.40;2.25;;;;;;;;;;6295142;27;20438;-70
2023/08/20 14:11:19;;;;;;;4.22;2.05;;;;;;;;;;6271085;27;20060;-70
2023/08/20 14:14:21;;;;;;;5.07;1.95;;;;;;;;;;6274284;27;20049;-70
2023/08/20 14:17:24;;;;;;;7.13;2.17;;;;;;;;;;6298888;27;20045;-69
2023/08/20 14:20:27;;;;;;;3.42;1.92;;;;;;;;;;6257336;27;20038;-69
2023/08/20 14:23:29;;;;;;;5.35;2.58;;;;;;;;;;6259662;27;20052;-69
2023/08/20 14:26:31;;;;;;;5.13;2.33;;;;;;;;;;6264736;27;20116;-68
2023/08/20 14:29:33;;;;;;;3.35;2.25;;;;;;;;;;6269990;27;20092;-68
2023/08/20 14:32:37;;;;;;;6.30;2.30;;;;;;;;;;6264833;27;20056;-68
2023/08/20 14:35:42;;;;;;;5.13;2.70;;;;;;;;;;6297992;27;20048;-69
2023/08/20 14:38:44;;;;;;;4.88;2.25;;;;;;;;;;6256506;27;20048;-69
2023/08/20 14:41:46;;;;;;;6.30;2.22;;;;;;;;;;6243999;27;20069;-70
2023/08/20 14:44:48;;;;;;;4.78;2.85;;;;;;;;;;6255976;27;20162;-71
2023/08/20 14:47:51;;;;;;;4.13;2.03;;;;;;;;;;6227304;28;20057;-71
2023/08/20 14:50:53;;;;;;;5.70;2.40;;;;;;;;;;6262727;27;20045;-69
2023/08/20 14:53:55;;;;;;;3.38;2.10;;;;;;;;;;6255090;27;20045;-70
2023/08/20 14:56:57;;;;;;;5.13;2.30;;;;;;;;;;6250538;27;20049;-70
2023/08/20 14:59:59;;;;;;;5.75;2.33;;;;;;;;;;6261089;27;20136;-71
2023/08/20 15:03:03;;;;;;;6.72;2.88;;;;;;;;;;6285425;27;20442;-70
2023/08/20 15:06:05;;;;;;;4.80;2.30;;;;;;;;;;6255260;28;20041;-71
2023/08/20 15:09:14;;;;;;;9.25;2.78;;;;;;;;;;6260500;27;20048;-72
2023/08/20 15:12:17;;;;;;;4.70;2.47;;;;;;;;;;6255830;27;20249;-70
2023/08/20 15:15:20;;;;;;;6.55;2.10;;;;;;;;;;6290248;27;20132;-71
2023/08/20 15:18:24;;;;;;;4.05;2.45;;;;;;;;;;6272119;27;20048;-71
2023/08/20 15:21:26;;;;;;;3.78;2.22;;;;;;;;;;6259446;27;20552;-71
2023/08/20 15:24:30;;;;;;;5.22;2.50;;;;;;;;;;6296563;27;20124;-71
2023/08/20 15:27:33;;;;;;;4.93;2.40;;;;;;;;;;6271225;27;20061;-71
2023/08/20 15:30:36;;;;;;;20.23;4.65;;;;;;;;;;6253238;27;20055;-71
2023/08/20 15:33:38;;;;;;;5.32;2.38;;;;;;;;;;6280700;27;20065;-69
2023/08/20 15:36:40;;;;;;;4.63;2.67;;;;;;;;;;6275804;27;20049;-68
2023/08/20 15:39:42;;;;;;;3.53;2.47;;;;;;;;;;6286807;27;20108;-68
2023/08/20 15:42:44;;;;;;;6.28;3.05;;;;;;;;;;6270779;27;20053;-68
2023/08/20 15:45:47;;;;;;;4.95;2.40;;;;;;;;;;6282021;27;20222;-69
2023/08/20 15:48:49;;;;;;;5.63;2.35;;;;;;;;;;6269680;27;20048;-68
2023/08/20 15:51:51;;;;;;;5.25;2.70;;;;;;;;;;6259075;27;20707;-69
2023/08/20 15:54:54;;;;;;;5.40;2.78;;;;;;;;;;6294648;27;20194;-69
2023/08/20 15:57:56;;;;;;;4.63;2.38;;;;;;;;;;6245204;27;20052;-68
2023/08/20 16:01:00;;;;;;;4.95;2.80;;;;;;;;;;6258418;27;20041;-68
2023/08/20 16:04:03;;;;;;;6.47;2.60;;;;;;;;;;6299144;27;20435;-69
2023/08/20 16:07:06;;;;;;;5.57;2.88;;;;;;;;;;6266652;27;20068;-69
2023/08/20 16:10:10;;;;;;;6.65;2.85;;;;;;;;;;6254754;27;20048;-68
2023/08/20 16:13:12;;;;;;;4.80;2.90;;;;;;;;;;6270699;27;20136;-68
2023/08/20 16:16:15;;;;;;;4.95;2.33;;;;;;;;;;6251868;27;20033;-68
2023/08/20 16:19:19;;;;;;;7.00;3.10;;;;;;;;;;6271910;27;20045;-68
2023/08/20 16:22:22;;;;;;;7.88;3.17;;;;;;;;;;6271317;27;20060;-69
2023/08/20 16:25:25;;;;;;;7.40;3.53;;;;;;;;;;6302607;27;20276;-68
2023/08/20 16:28:28;;;;;;;5.82;2.65;;;;;;;;;;6267323;27;20132;-69
2023/08/20 16:31:30;;;;;;;8.13;3.28;;;;;;;;;;6254830;27;20071;-69
2023/08/20 16:34:32;;;;;;;6.10;3.15;;;;;;;;;;6283634;27;20037;-69
2023/08/20 16:37:34;;;;;;;4.97;2.75;;;;;;;;;;6250965;27;20049;-70
2023/08/20 16:40:36;;;;;;;8.18;2.88;;;;;;;;;;6275915;27;20080;-70
2023/08/20 16:43:39;;;;;;;6.00;3.30;;;;;;;;;;6261758;27;20125;-69
2023/08/20 16:46:41;;;;;;;6.47;2.83;;;;;;;;;;6260843;27;20547;-68
2023/08/20 16:49:43;;;;;;;7.20;2.45;;;;;;;;;;6252292;27;20064;-68
2023/08/20 16:52:45;;;;;;;7.05;2.38;;;;;;;;;;6275032;27;20072;-68
2023/08/20 16:55:52;;;;;;;5.38;2.67;;;;;;;;;;6272396;27;20188;-67
2023/08/20 16:58:54;;;;;;;4.75;2.75;;;;;;;;;;6255482;27;20033;-68
2023/08/20 17:01:57;;;;;;;12.07;4.13;;;;;;;;;;6271398;27;20049;-69
2023/08/20 17:04:59;;;;;;;5.85;3.08;;;;;;;;;;6296366;27;20037;-68
2023/08/20 17:08:01;;;;;;;6.10;2.58;;;;;;;;;;6272231;27;20041;-69
2023/08/20 17:11:08;;;;;;;9.48;3.00;;;;;;;;;;6290028;27;20527;-69
2023/08/20 17:14:10;;;;;;;4.85;2.65;;;;;;;;;;6289737;27;20033;-69
2023/08/20 17:17:13;;;;;;;7.15;3.90;;;;;;;;;;6250195;27;20041;-68
2023/08/20 17:20:15;;;;;;;5.82;2.80;;;;;;;;;;6291616;27;20884;-69
2023/08/20 17:23:17;;;;;;;4.95;3.53;;;;;;;;;;6275404;27;20128;-68
2023/08/20 17:26:19;;;;;;;5.53;2.78;;;;;;;;;;6297406;27;20719;-69
2023/08/20 17:29:21;;;;;;;5.10;2.80;;;;;;;;;;6301396;27;20054;-69
2023/08/20 17:32:23;;;;;;;8.55;3.72;;;;;;;;;;6267757;27;20439;-67
2023/08/20 17:35:25;;;;;;;5.85;3.60;;;;;;;;;;6298725;27;20115;-68
2023/08/20 17:38:28;;;;;;;5.03;2.95;;;;;;;;;;6275577;27;20587;-67
2023/08/20 17:41:31;;;;;;;5.60;2.70;;;;;;;;;;6280415;27;20060;-67
2023/08/20 17:44:34;;;;;;;7.95;3.30;;;;;;;;;;6283412;27;20059;-68
2023/08/20 17:47:40;;;;;;;6.95;3.17;;;;;;;;;;6251627;27;20045;-67
2023/08/20 17:50:42;;;;;;;4.72;2.80;;;;;;;;;;6288284;27;20048;-67
2023/08/20 17:53:44;;;;;;;4.65;2.97;;;;;;;;;;6260138;27;20076;-68
2023/08/20 17:56:46;;;;;;;5.03;3.40;;;;;;;;;;6248105;27;20045;-68
2023/08/20 17:59:48;;;;;;;6.63;3.75;;;;;;;;;;6259362;27;20043;-71
2023/08/20 18:02:50;;;;;;;5.53;3.33;;;;;;;;;;6252988;28;20055;-71
2023/08/20 18:05:56;;;;;;;7.35;3.00;;;;;;;;;;6269203;27;20066;-70
2023/08/20 18:08:58;;;;;;;5.53;2.97;;;;;;;;;;6258358;27;20041;-74